createdAt,value
2022-10-24T00:02:44.107Z,61.54
2022-10-24T00:05:18.203Z,61.44
2022-10-24T00:08:16.273Z,61.76
2022-10-24T00:11:01.003Z,61.90
2022-10-24T00:13:50.356Z,62.10
2022-10-24T00:16:18.521Z,62.14
2022-10-24T00:18:48.572Z,62.49
2022-10-24T00:21:16.694Z,62.38
2022-10-24T00:23:46.327Z,62.24
2022-10-24T00:26:16.097Z,62.18
2022-10-24T00:28:46.836Z,62.07
2022-10-24T00:31:16.597Z,62.19
2022-10-24T00:33:44.806Z,62.29
2022-10-24T00:36:13.314Z,62.29
2022-10-24T00:38:41.345Z,62.24
2022-10-24T00:41:16.077Z,62.48
2022-10-24T00:43:44.210Z,62.58
2022-10-24T00:46:13.347Z,62.82
2022-10-24T00:48:45.666Z,63.15
2022-10-24T00:51:21.542Z,63.44
2022-10-24T00:56:32.301Z,63.45
2022-10-24T00:59:00.693Z,63.98
2022-10-24T01:01:28.710Z,64.34
2022-10-24T01:03:57.875Z,64.98
2022-10-24T01:06:33.292Z,65.49
2022-10-24T01:09:08.401Z,65.93
2022-10-24T01:11:55.087Z,66.94
2022-10-24T01:14:31.496Z,67.35
2022-10-24T01:17:06.803Z,67.58
2022-10-24T01:19:49.061Z,67.93
2022-10-24T01:22:18.557Z,67.32
2022-10-24T01:25:03.785Z,67.55
2022-10-24T01:30:49.191Z,67.72
2022-10-24T01:33:20.733Z,67.89
2022-10-24T01:35:51.861Z,67.89
2022-10-24T01:38:27.469Z,67.38
2022-10-24T01:40:58.495Z,67.43
2022-10-24T01:43:29.347Z,67.25
2022-10-24T01:46:04.246Z,66.96
2022-10-24T01:48:45.013Z,67.15
2022-10-24T01:51:19.992Z,67.16
2022-10-24T01:53:49.774Z,67.22
2022-10-24T01:56:20.698Z,67.03
2022-10-24T01:58:49.274Z,67.32
2022-10-24T02:01:22.358Z,67.36
2022-10-24T02:03:52.042Z,67.05
2022-10-24T02:06:31.094Z,67.41
2022-10-24T02:11:35.392Z,67.21
2022-10-24T02:14:06.448Z,67.52
2022-10-24T02:16:36.861Z,67.68
2022-10-24T02:19:04.849Z,67.93
2022-10-24T02:21:43.951Z,67.77
2022-10-24T02:24:15.319Z,68.11
2022-10-24T02:26:57.310Z,68.20
2022-10-24T02:33:22.062Z,68.34
2022-10-24T02:36:19.394Z,68.36
2022-10-24T02:39:23.402Z,68.48
2022-10-24T02:46:27.279Z,69.08
2022-10-24T02:48:59.301Z,68.76
2022-10-24T02:51:39.960Z,68.79
2022-10-24T02:54:50.137Z,68.31
2022-10-24T03:02:14.916Z,68.13
2022-10-24T03:04:50.437Z,67.69
2022-10-24T03:07:48.952Z,67.40
2022-10-24T03:10:25.394Z,67.35
2022-10-24T03:12:57.843Z,67.28
2022-10-24T03:15:29.739Z,66.94
2022-10-24T03:17:58.121Z,66.93
2022-10-24T03:20:30.391Z,66.90
2022-10-24T03:23:02.458Z,66.59
2022-10-24T03:25:32.015Z,66.49
2022-10-24T03:30:48.043Z,66.74
2022-10-24T03:33:16.372Z,66.55
2022-10-24T03:35:48.202Z,66.42
2022-10-24T03:38:16.600Z,66.31
2022-10-24T03:43:14.531Z,65.90
2022-10-24T03:45:42.666Z,65.95
2022-10-24T03:48:10.616Z,65.89
2022-10-24T03:50:41.118Z,65.73
2022-10-24T03:53:10.532Z,65.75
2022-10-24T03:55:39.541Z,65.67
2022-10-24T03:58:07.568Z,65.47
2022-10-24T04:00:39.467Z,65.53
2022-10-24T04:03:11.601Z,65.38
2022-10-24T04:05:40.917Z,65.44
2022-10-24T04:08:18.505Z,65.39
2022-10-24T04:10:46.687Z,65.22
2022-10-24T04:13:22.006Z,65.32
2022-10-24T04:15:50.825Z,65.25
2022-10-24T04:18:18.864Z,65.08
2022-10-24T04:20:51.302Z,65.13
2022-10-24T04:23:21.246Z,64.90
2022-10-24T04:25:58.245Z,65.13
2022-10-24T04:28:27.180Z,64.98
2022-10-24T04:30:56.430Z,64.83
2022-10-24T04:33:25.823Z,64.95
2022-10-24T04:35:56.085Z,64.77
2022-10-24T04:38:29.877Z,64.84
2022-10-24T04:41:01.254Z,64.74
2022-10-24T04:43:30.518Z,64.62
2022-10-24T04:45:58.675Z,64.51
2022-10-24T04:48:26.679Z,64.49
2022-10-24T04:50:54.757Z,64.76
2022-10-24T04:53:22.753Z,64.51
2022-10-24T04:56:01.830Z,64.39
2022-10-24T04:58:30.616Z,64.63
2022-10-24T05:00:58.867Z,64.86
2022-10-24T05:03:26.922Z,64.69
2022-10-24T05:05:54.896Z,64.62
2022-10-24T05:08:22.963Z,64.61
2022-10-24T05:10:53.121Z,64.60
2022-10-24T05:13:23.560Z,64.77
2022-10-24T05:15:55.911Z,64.56
2022-10-24T05:18:27.865Z,64.55
2022-10-24T05:20:58.205Z,64.26
2022-10-24T05:23:41.019Z,64.36
2022-10-24T05:26:09.108Z,64.37
2022-10-24T05:28:38.505Z,64.57
2022-10-24T05:31:09.503Z,64.67
2022-10-24T05:33:37.608Z,64.55
2022-10-24T05:36:06.468Z,64.47
2022-10-24T05:38:34.609Z,64.52
2022-10-24T05:41:02.598Z,64.67
2022-10-24T05:46:21.415Z,64.60
2022-10-24T05:48:51.974Z,64.84
2022-10-24T05:51:20.109Z,64.77
2022-10-24T05:53:48.135Z,64.68
2022-10-24T05:56:18.458Z,64.82
2022-10-24T05:58:49.387Z,64.73
2022-10-24T06:01:18.928Z,64.94
2022-10-24T06:03:47.108Z,65.02
2022-10-24T06:06:16.602Z,64.92
2022-10-24T06:08:46.944Z,65.02
2022-10-24T06:11:15.071Z,65.02
2022-10-24T06:13:43.137Z,64.80
2022-10-24T06:16:11.672Z,64.71
2022-10-24T06:18:46.325Z,64.86
2022-10-24T06:21:15.998Z,64.84
2022-10-24T06:23:44.323Z,64.78
2022-10-24T06:26:14.231Z,64.86
2022-10-24T06:28:42.897Z,64.84
2022-10-24T06:31:12.822Z,64.83
2022-10-24T06:33:41.336Z,64.98
2022-10-24T06:36:12.272Z,64.90
2022-10-24T06:38:40.459Z,64.98
2022-10-24T06:41:08.833Z,64.91
2022-10-24T06:43:37.172Z,64.85
2022-10-24T06:46:07.879Z,65.06
2022-10-24T06:48:36.337Z,65.16
2022-10-24T06:51:07.070Z,64.92
2022-10-24T06:53:39.165Z,65.27
2022-10-24T06:56:15.629Z,65.05
2022-10-24T06:58:45.665Z,65.00
2022-10-24T07:01:17.423Z,65.23
2022-10-24T07:03:48.258Z,65.26
2022-10-24T07:06:17.177Z,65.45
2022-10-24T07:08:54.463Z,65.23
2022-10-24T07:11:22.554Z,65.31
2022-10-24T07:13:50.644Z,65.39
2022-10-24T07:16:19.878Z,65.29
2022-10-24T07:18:51.140Z,65.35
2022-10-24T07:21:21.349Z,65.22
2022-10-24T07:24:06.185Z,65.05
2022-10-24T07:26:34.157Z,65.18
2022-10-24T07:29:04.764Z,65.35
2022-10-24T07:31:37.902Z,65.29
2022-10-24T07:34:08.444Z,65.31
2022-10-24T07:36:41.475Z,65.37
2022-10-24T07:39:20.777Z,65.34
2022-10-24T07:41:49.301Z,65.45
2022-10-24T07:44:17.524Z,65.36
2022-10-24T07:46:50.110Z,65.38
2022-10-24T07:49:22.174Z,65.16
2022-10-24T07:51:57.642Z,65.00
2022-10-24T07:54:30.653Z,65.04
2022-10-24T07:57:04.639Z,64.98
2022-10-24T07:59:47.791Z,65.16
2022-10-24T08:02:17.110Z,65.14
2022-10-24T08:04:45.540Z,65.22
2022-10-24T08:07:14.211Z,65.27
2022-10-24T08:12:28.364Z,65.37
2022-10-24T08:14:59.882Z,65.21
2022-10-24T08:17:28.140Z,65.27
2022-10-24T08:19:57.776Z,65.32
2022-10-24T08:22:28.205Z,65.14
2022-10-24T08:24:58.021Z,65.23
2022-10-24T08:27:27.507Z,65.10
2022-10-24T08:29:55.533Z,65.02
2022-10-24T08:32:23.536Z,64.97
2022-10-24T08:34:51.500Z,64.63
2022-10-24T08:37:19.465Z,64.63
2022-10-24T08:39:50.740Z,64.63
2022-10-24T08:42:20.171Z,64.56
2022-10-24T08:44:48.241Z,64.33
2022-10-24T08:47:22.612Z,64.46
2022-10-24T08:49:55.216Z,64.45
2022-10-24T08:52:28.289Z,64.35
2022-10-24T08:54:57.123Z,64.10
2022-10-24T08:57:35.254Z,64.14
2022-10-24T09:00:08.761Z,64.51
2022-10-24T09:02:42.422Z,64.27
2022-10-24T09:05:28.419Z,64.07
2022-10-24T09:08:04.208Z,64.04
2022-10-24T09:10:38.064Z,64.02
2022-10-24T09:13:13.548Z,64.06
2022-10-24T09:15:42.009Z,64.13
2022-10-24T09:18:15.181Z,64.11
2022-10-24T09:20:44.390Z,64.30
2022-10-24T09:23:13.084Z,64.01
2022-10-24T09:25:43.707Z,63.43
2022-10-24T09:28:13.169Z,63.23
2022-10-24T09:30:43.737Z,63.07
2022-10-24T09:33:22.986Z,63.14
2022-10-24T09:35:53.915Z,63.00
2022-10-24T09:38:34.652Z,62.95
2022-10-24T09:41:05.054Z,62.76
2022-10-24T09:43:59.236Z,63.04
2022-10-24T09:46:51.731Z,63.38
2022-10-24T09:49:40.307Z,63.82
2022-10-24T09:52:19.910Z,64.81
2022-10-24T09:54:52.102Z,65.94
2022-10-24T09:57:21.506Z,66.40
2022-10-24T10:00:29.813Z,66.83
2022-10-24T10:03:33.622Z,67.08
2022-10-24T10:06:28.567Z,67.61
2022-10-24T10:09:05.304Z,68.09
2022-10-24T10:12:00.778Z,68.39
2022-10-24T10:14:50.254Z,68.37
2022-10-24T10:17:21.967Z,68.56
2022-10-24T10:20:08.522Z,68.77
2022-10-24T10:22:55.260Z,68.43
2022-10-24T10:25:31.218Z,68.73
2022-10-24T10:28:02.402Z,68.88
2022-10-24T10:31:00.290Z,68.42
2022-10-24T10:33:47.067Z,68.68
2022-10-24T10:36:22.093Z,69.18
2022-10-24T10:39:54.173Z,69.35
2022-10-24T10:42:30.524Z,69.87
2022-10-24T10:48:59.514Z,68.67
2022-10-24T10:56:20.708Z,66.76
2022-10-24T10:59:58.017Z,66.63
2022-10-24T11:06:36.076Z,65.73
2022-10-24T11:26:15.751Z,68.06
2022-10-24T11:29:13.268Z,67.89
2022-10-24T11:32:14.243Z,67.64
2022-10-24T11:34:52.187Z,67.32
2022-10-24T11:37:30.503Z,66.63
2022-10-24T11:40:13.620Z,66.47
2022-10-24T11:43:16.310Z,66.04
2022-10-24T11:45:54.716Z,65.75
2022-10-24T11:48:44.895Z,66.05
2022-10-24T11:51:26.581Z,65.82
2022-10-24T11:54:13.358Z,65.58
2022-10-24T11:56:45.826Z,65.66
2022-10-24T11:59:31.709Z,65.37
2022-10-24T12:02:45.489Z,65.49
2022-10-24T12:05:25.863Z,65.54
2022-10-24T12:08:37.040Z,65.58
2022-10-24T12:11:16.730Z,65.61
2022-10-24T12:16:41.013Z,65.32
2022-10-24T12:19:20.449Z,65.07
2022-10-24T12:21:49.796Z,65.02
2022-10-24T12:24:44.065Z,64.89
2022-10-24T12:27:29.079Z,64.70
2022-10-24T12:30:25.517Z,64.66
2022-10-24T12:33:27.733Z,64.66
2022-10-24T12:36:10.704Z,64.54
2022-10-24T12:39:29.283Z,63.96
2022-10-24T12:42:00.541Z,63.70
2022-10-24T12:45:02.078Z,63.29
2022-10-24T12:47:38.741Z,63.29
2022-10-24T12:50:45.009Z,62.39
2022-10-24T12:54:04.173Z,62.22
2022-10-24T12:56:33.027Z,62.14
2022-10-24T12:59:05.813Z,62.00
2022-10-24T13:01:43.141Z,61.82
2022-10-24T13:04:47.647Z,61.75
2022-10-24T13:07:57.700Z,61.47
2022-10-24T13:10:36.002Z,61.54
2022-10-24T13:13:19.026Z,61.24
2022-10-24T13:15:51.285Z,61.03
2022-10-24T13:18:37.769Z,61.20
2022-10-24T13:24:28.130Z,61.50
2022-10-24T13:27:35.946Z,61.04
2022-10-24T13:30:49.568Z,60.52
2022-10-24T13:33:41.543Z,60.29
2022-10-24T13:36:18.182Z,60.36
2022-10-24T13:38:56.962Z,60.64
2022-10-24T13:41:30.054Z,60.72
2022-10-24T13:44:05.109Z,60.28
2022-10-24T13:46:37.007Z,60.19
2022-10-24T13:49:05.338Z,59.78
2022-10-24T13:51:37.660Z,59.09
2022-10-24T13:54:12.114Z,59.12
2022-10-24T13:57:02.516Z,58.98
2022-10-24T13:59:37.152Z,58.85
2022-10-24T14:02:07.999Z,58.22
2022-10-24T14:04:36.393Z,58.00
2022-10-24T14:07:05.051Z,57.68
2022-10-24T14:09:47.525Z,57.66
2022-10-24T14:12:27.047Z,57.73
2022-10-24T14:14:56.823Z,57.57
2022-10-24T14:17:27.872Z,57.65
2022-10-24T14:19:57.672Z,57.62
2022-10-24T14:22:28.160Z,57.12
2022-10-24T14:24:58.148Z,57.23
2022-10-24T14:27:28.627Z,57.31
2022-10-24T14:30:19.032Z,57.15
2022-10-24T14:32:51.033Z,57.45
2022-10-24T14:35:20.802Z,57.46
2022-10-24T14:37:49.633Z,57.46
2022-10-24T14:40:24.154Z,57.69
2022-10-24T14:42:54.638Z,57.98
2022-10-24T14:45:25.929Z,57.96
2022-10-24T14:47:58.894Z,57.21
2022-10-24T14:50:38.571Z,56.61
2022-10-24T14:53:06.742Z,56.36
2022-10-24T14:55:34.918Z,56.06
2022-10-24T14:58:04.784Z,56.00
2022-10-24T15:00:39.684Z,56.18
2022-10-24T15:03:07.914Z,56.05
2022-10-24T15:05:41.182Z,55.95
2022-10-24T15:08:54.370Z,55.83
2022-10-24T15:11:25.053Z,56.33
2022-10-24T15:14:06.431Z,56.51
2022-10-24T15:16:39.938Z,56.45
2022-10-24T15:19:08.418Z,56.35
2022-10-24T15:21:42.462Z,56.19
2022-10-24T15:24:20.782Z,56.47
2022-10-24T15:26:48.948Z,56.58
2022-10-24T15:34:44.764Z,56.80
2022-10-24T15:37:21.615Z,56.72
2022-10-24T15:40:45.881Z,56.95
2022-10-24T15:47:34.651Z,57.18
2022-10-24T15:50:14.858Z,57.16
2022-10-24T15:52:51.475Z,58.15
2022-10-24T15:55:27.648Z,59.49
2022-10-24T16:00:58.829Z,61.08
2022-10-24T16:03:30.059Z,61.52
2022-10-24T16:06:03.555Z,61.73
2022-10-24T16:08:34.542Z,62.09
2022-10-24T16:11:15.310Z,62.04
2022-10-24T16:13:43.517Z,62.22
2022-10-24T16:16:12.259Z,62.22
2022-10-24T16:18:42.012Z,61.77
2022-10-24T16:21:59.041Z,61.50
2022-10-24T16:24:29.314Z,61.47
2022-10-24T16:26:57.438Z,61.27
2022-10-24T16:29:25.387Z,61.00
2022-10-24T16:35:21.822Z,61.09
2022-10-24T16:37:58.859Z,61.16
2022-10-24T16:40:29.111Z,60.59
2022-10-24T16:51:47.768Z,60.70
2022-10-24T16:54:23.231Z,61.15
2022-10-24T16:59:53.347Z,62.44
2022-10-24T17:02:21.405Z,62.71
2022-10-24T17:04:49.364Z,63.05
2022-10-24T17:07:18.961Z,63.54
2022-10-24T17:09:47.072Z,63.34
2022-10-24T17:12:20.056Z,63.62
2022-10-24T17:14:48.101Z,63.60
2022-10-24T17:17:37.743Z,63.90
2022-10-24T17:20:09.074Z,63.90
2022-10-24T17:22:37.486Z,63.84
2022-10-24T17:25:30.404Z,63.83
2022-10-24T17:28:01.665Z,63.73
2022-10-24T17:30:30.395Z,63.87
2022-10-24T17:32:58.797Z,63.76
2022-10-24T17:35:54.481Z,63.79
2022-10-24T17:38:34.655Z,63.90
2022-10-24T17:41:08.126Z,63.92
2022-10-24T17:43:38.012Z,63.85
2022-10-24T17:46:06.527Z,63.89
2022-10-24T17:48:34.853Z,64.06
2022-10-24T17:51:07.129Z,63.93
2022-10-24T17:53:57.550Z,63.97
2022-10-24T17:56:26.024Z,63.97
2022-10-24T17:59:12.669Z,63.92
2022-10-24T18:01:43.560Z,63.74
2022-10-24T18:04:15.227Z,63.57
2022-10-24T18:06:43.782Z,63.60
2022-10-24T18:09:12.073Z,63.42
2022-10-24T18:11:56.100Z,63.54
2022-10-24T18:14:25.639Z,63.44
2022-10-24T18:16:56.577Z,63.42
2022-10-24T18:19:25.936Z,63.60
2022-10-24T18:27:46.704Z,63.20
2022-10-24T18:30:19.419Z,63.41
2022-10-24T18:35:44.693Z,63.26
2022-10-24T18:38:30.261Z,63.35
2022-10-24T18:40:58.798Z,63.33
2022-10-24T18:43:45.160Z,63.31
2022-10-24T18:49:50.331Z,63.30
2022-10-24T18:52:28.533Z,63.12
2022-10-24T18:55:02.158Z,63.46
2022-10-24T18:57:49.183Z,63.55
2022-10-24T19:00:22.163Z,63.65
2022-10-24T19:03:41.600Z,63.75
2022-10-24T19:10:08.164Z,63.57
2022-10-24T19:12:36.976Z,63.45
2022-10-24T19:15:06.944Z,63.56
2022-10-24T19:17:38.135Z,63.69
2022-10-24T19:20:15.002Z,63.75
2022-10-24T19:22:58.424Z,63.56
2022-10-24T19:25:36.120Z,63.67
2022-10-24T19:30:57.328Z,63.55
2022-10-24T19:39:08.837Z,63.32
2022-10-24T19:41:58.323Z,62.96
2022-10-24T19:44:28.143Z,63.02
2022-10-24T19:47:05.867Z,62.98
2022-10-24T19:49:34.072Z,63.15
2022-10-24T19:52:03.468Z,63.12
2022-10-24T19:54:41.812Z,63.04
2022-10-24T19:57:12.374Z,62.96
2022-10-24T20:00:03.779Z,62.93
2022-10-24T20:02:48.923Z,63.06
2022-10-24T20:05:17.342Z,63.08
2022-10-24T20:07:48.944Z,63.12
2022-10-24T20:10:30.857Z,63.00
2022-10-24T20:12:59.001Z,63.02
2022-10-24T20:15:29.498Z,62.96
2022-10-24T20:18:07.027Z,62.92
2022-10-24T20:20:38.503Z,63.02
2022-10-24T20:23:27.673Z,63.17
2022-10-24T20:26:28.141Z,63.40
2022-10-24T20:28:57.398Z,63.37
2022-10-24T20:34:12.619Z,63.28
2022-10-24T20:36:48.180Z,63.21
2022-10-24T20:39:46.682Z,63.31
2022-10-24T20:42:20.917Z,63.42
2022-10-24T20:45:10.253Z,63.40
2022-10-24T20:47:47.946Z,63.68
2022-10-24T20:53:24.147Z,63.25
2022-10-24T20:56:41.152Z,63.60
2022-10-24T21:02:13.606Z,63.67
2022-10-24T21:04:57.949Z,63.78
2022-10-24T21:07:26.010Z,63.69
2022-10-24T21:10:09.186Z,63.94
2022-10-24T21:13:00.782Z,63.66
2022-10-24T21:21:52.365Z,64.01
2022-10-24T21:24:33.756Z,63.76
2022-10-24T21:27:49.913Z,63.96
2022-10-24T21:33:58.274Z,63.91
2022-10-24T21:36:26.430Z,64.16
2022-10-24T21:39:13.290Z,63.98
2022-10-24T21:41:41.467Z,63.91
2022-10-24T21:44:09.777Z,64.20
2022-10-24T21:52:48.445Z,64.09
2022-10-24T21:55:16.883Z,64.17
2022-10-24T21:57:46.249Z,64.07
2022-10-24T22:00:31.202Z,64.17
2022-10-24T22:03:12.219Z,64.18
2022-10-24T22:05:40.899Z,64.04
2022-10-24T22:08:22.802Z,64.08
2022-10-24T22:11:48.307Z,64.28
2022-10-24T22:14:40.723Z,64.30
2022-10-24T22:17:08.867Z,64.15
2022-10-24T22:19:38.353Z,64.03
2022-10-24T22:22:06.570Z,64.10
2022-10-24T22:24:40.323Z,64.07
2022-10-24T22:30:33.377Z,64.08
2022-10-24T22:33:01.946Z,64.18
2022-10-24T22:35:32.496Z,64.10
2022-10-24T22:38:00.978Z,64.26
2022-10-24T22:40:41.992Z,64.16
2022-10-24T22:43:10.716Z,64.25
2022-10-24T22:45:52.623Z,64.07
2022-10-24T22:48:23.068Z,64.24
2022-10-24T22:50:53.746Z,63.97
2022-10-24T22:53:23.915Z,64.10
2022-10-24T22:59:26.140Z,64.22
2022-10-24T23:02:25.606Z,64.41
2022-10-24T23:04:59.639Z,65.04
2022-10-24T23:07:35.120Z,65.25
2022-10-24T23:10:03.409Z,65.34
2022-10-24T23:12:47.056Z,65.83
2022-10-24T23:15:16.132Z,65.86
2022-10-24T23:17:44.655Z,65.65
2022-10-24T23:20:23.070Z,65.69
2022-10-24T23:23:17.069Z,65.50
2022-10-24T23:26:12.993Z,65.22
2022-10-24T23:28:46.386Z,65.44
2022-10-24T23:31:18.167Z,65.36
2022-10-24T23:33:47.045Z,65.25
2022-10-24T23:36:45.419Z,65.05
2022-10-24T23:39:32.156Z,65.23
2022-10-24T23:42:00.959Z,65.02
2022-10-24T23:44:29.595Z,65.23
2022-10-24T23:47:00.027Z,64.98
2022-10-24T23:49:39.953Z,65.10
2022-10-24T23:52:16.160Z,65.10
2022-10-24T23:54:47.851Z,65.24
2022-10-24T23:57:17.537Z,65.01
2022-10-24T23:59:46.033Z,65.16
